This is the latest recevied weather packets stored in our database for station/object DH5DY-6. If no packets are shown the sender has not sent any weather packets the latest 1 day(s).
| Time | Temp. | Humidity | Pressure | Rain* | Wind** | Luminosity | Snow |
|---|---|---|---|---|---|---|---|
| 1778068724 | 11.67° C | 94% | 1003.5 hPa | 1.27 mm | - | 257 W/m² | - |
| 1778067524 | 11.67° C | 94% | 1003.5 hPa | 0.76 mm | - | 127 W/m² | - |
| 1778066924 | 11.67° C | 93% | 1003.3 hPa | 0.51 mm | - | 148 W/m² | - |
| 1778065724 | 11.67° C | 93% | 1003.5 hPa | 0.51 mm | - | 114 W/m² | - |
| 1778065123 | 11.67° C | 92% | 1003.4 hPa | 0.51 mm | - | 70 W/m² | - |
| 1778064523 | 11.67° C | 93% | 1003.4 hPa | 0.51 mm | - | 104 W/m² | - |
| 1778063924 | 12.22° C | 93% | 1003.4 hPa | 0.51 mm | - | 93 W/m² | - |
| 1778062723 | 11.67° C | 94% | 1003.3 hPa | 0.51 mm | - | 165 W/m² | - |
| 1778060923 | 11.67° C | 95% | 1003.2 hPa | 0.76 mm | - | 171 W/m² | - |
| 1778060323 | 11.11° C | 95% | 1003.2 hPa | 1.02 mm | - | 211 W/m² | - |
| 1778059723 | 11.11° C | 95% | 1003.1 hPa | 1.52 mm | - | 225 W/m² | - |
| 1778059155 | 11.11° C | 95% | 1003.1 hPa | 1.52 mm | - | 185 W/m² | - |
| 1778059123 | 11.11° C | 95% | 1003.1 hPa | 1.52 mm | - | 185 W/m² | - |
| 1778057923 | 11.11° C | 95% | 1003.1 hPa | 1.02 mm | - | 121 W/m² | - |
| 1778056123 | 10.56° C | 95% | 1002.9 hPa | 0.25 mm | - | 90 W/m² | - |
| 1778054923 | 10.56° C | 95% | 1002.8 hPa | 0 mm | - | 32 W/m² | - |
| 1778054323 | 10.56° C | 95% | 1002.8 hPa | 0 mm | - | 40 W/m² | - |
| 1778053723 | 10.56° C | 95% | 1002.7 hPa | 0 mm | - | 72 W/m² | - |
| 1778051923 | 10.56° C | 95% | 1002.7 hPa | 0 mm | - | 90 W/m² | - |
| 1778048922 | 10.56° C | 95% | 1002.5 hPa | 0 mm | - | 49 W/m² | - |
| 1778048322 | 10.56° C | 95% | 1002.6 hPa | 0 mm | - | 37 W/m² | - |
| 1778047722 | 10.56° C | 95% | 1002.6 hPa | 0 mm | - | 67 W/m² | - |
| 1778046522 | 10.56° C | 95% | 1002.5 hPa | 0.25 mm | - | 51 W/m² | - |
| 1778045322 | 10.56° C | 95% | 1002.5 hPa | 0.51 mm | - | 26 W/m² | - |
| 1778044121 | 10.56° C | 95% | 1002.6 hPa | 0.51 mm | - | 11 W/m² | - |
* Rain latest hour (hover to see other rain measurements)
** Current wind speed in m/s (hover to see current wind gust speed)